createdAt,value
2018-03-17T00:00:35.234Z,-2.90
2018-03-17T00:03:38.535Z,-3.00
2018-03-17T00:06:42.642Z,-3.10
2018-03-17T00:09:45.952Z,-3.10
2018-03-17T00:12:50.030Z,-3.00
2018-03-17T00:15:53.354Z,-3.00
2018-03-17T00:18:56.655Z,-3.00
2018-03-17T00:21:59.975Z,-3.00
2018-03-17T00:25:03.285Z,-3.00
2018-03-17T00:28:06.603Z,-2.90
2018-03-17T00:31:09.903Z,-2.90
2018-03-17T00:34:13.226Z,-2.90
2018-03-17T00:37:16.541Z,-2.80
2018-03-17T00:40:20.624Z,-2.90
2018-03-17T00:43:23.936Z,-2.90
2018-03-17T00:46:27.260Z,-3.00
2018-03-17T00:49:30.563Z,-3.00
2018-03-17T00:52:33.895Z,-3.00
2018-03-17T00:55:37.190Z,-3.10
2018-03-17T00:58:40.507Z,-3.10
2018-03-17T01:01:43.851Z,-3.10
2018-03-17T01:04:47.154Z,-3.10
2018-03-17T01:07:50.476Z,-3.10
2018-03-17T01:10:53.783Z,-3.10
2018-03-17T01:13:57.104Z,-3.00
2018-03-17T01:17:00.417Z,-3.00
2018-03-17T01:20:04.478Z,-2.90
2018-03-17T01:23:07.790Z,-3.00
2018-03-17T01:26:11.086Z,-3.00
2018-03-17T01:29:14.401Z,-3.00
2018-03-17T01:32:17.702Z,-3.00
2018-03-17T01:35:21.798Z,-3.00
2018-03-17T01:38:25.098Z,-3.00
2018-03-17T01:41:28.415Z,-3.00
2018-03-17T01:44:32.495Z,-3.20
2018-03-17T01:47:35.806Z,-3.20
2018-03-17T01:50:39.110Z,-3.20
2018-03-17T01:53:42.430Z,-3.10
2018-03-17T01:56:46.490Z,-3.10
2018-03-17T01:59:49.823Z,-3.10
2018-03-17T02:02:53.120Z,-3.10
2018-03-17T02:05:56.439Z,-3.10
2018-03-17T02:08:59.756Z,-3.10
2018-03-17T02:12:03.060Z,-3.00
2018-03-17T02:15:06.376Z,-3.00
2018-03-17T02:18:09.678Z,-3.00
2018-03-17T02:21:12.998Z,-3.00
2018-03-17T02:24:16.303Z,-3.00
2018-03-17T02:27:19.639Z,-3.10
2018-03-17T02:30:22.944Z,-3.10
2018-03-17T02:33:26.263Z,-3.20
2018-03-17T02:36:29.605Z,-3.20
2018-03-17T02:39:32.913Z,-3.30
2018-03-17T02:42:36.236Z,-3.30
2018-03-17T02:45:39.547Z,-3.30
2018-03-17T02:48:42.869Z,-3.30
2018-03-17T02:51:46.166Z,-3.20
2018-03-17T02:54:50.246Z,-3.20
2018-03-17T02:57:53.546Z,-3.20
2018-03-17T03:00:56.866Z,-3.10
2018-03-17T03:04:00.186Z,-3.00
2018-03-17T03:07:04.271Z,-3.10
2018-03-17T03:10:07.596Z,-3.10
2018-03-17T03:13:11.695Z,-3.10
2018-03-17T03:16:14.994Z,-3.10
2018-03-17T03:19:19.074Z,-3.20
2018-03-17T03:22:22.391Z,-3.20
2018-03-17T03:25:25.722Z,-3.10
2018-03-17T03:28:29.023Z,-3.20
2018-03-17T03:31:32.363Z,-3.20
2018-03-17T03:34:35.658Z,-3.20
2018-03-17T03:37:38.986Z,-3.20
2018-03-17T03:40:43.055Z,-3.10
2018-03-17T03:43:46.386Z,-3.10
2018-03-17T03:46:49.683Z,-3.10
2018-03-17T03:49:52.998Z,-3.10
2018-03-17T03:52:57.116Z,-3.20
2018-03-17T03:56:00.399Z,-3.20
2018-03-17T03:59:04.486Z,-3.10
2018-03-17T04:02:07.807Z,-3.20
2018-03-17T04:05:11.128Z,-3.20
2018-03-17T04:08:14.455Z,-3.20
2018-03-17T04:11:19.421Z,-3.20
2018-03-17T04:14:22.746Z,-3.30
2018-03-17T04:17:26.830Z,-3.40
2018-03-17T04:20:30.177Z,-3.40
2018-03-17T04:23:33.486Z,-3.40
2018-03-17T04:26:36.819Z,-3.30
2018-03-17T04:29:40.130Z,-3.30
2018-03-17T04:32:43.451Z,-3.30
2018-03-17T04:35:47.535Z,-3.40
2018-03-17T04:38:50.851Z,-3.40
2018-03-17T04:41:59.358Z,-3.40
2018-03-17T04:45:10.496Z,-3.40
2018-03-17T04:48:14.671Z,-3.40
2018-03-17T04:51:18.099Z,-3.40
2018-03-17T04:54:21.932Z,-3.30
2018-03-17T05:00:34.883Z,-3.30
2018-03-17T05:03:38.218Z,-3.30
2018-03-17T05:06:41.532Z,-3.20
2018-03-17T05:09:44.872Z,-3.20
2018-03-17T05:12:48.220Z,-3.30
2018-03-17T05:15:51.549Z,-3.40
2018-03-17T05:18:54.927Z,-3.40
2018-03-17T05:21:58.282Z,-3.40
2018-03-17T05:25:02.412Z,-3.30
2018-03-17T05:28:06.516Z,-3.20
2018-03-17T05:31:10.637Z,-3.30
2018-03-17T05:34:15.198Z,-3.40
2018-03-17T05:37:18.548Z,-3.40
2018-03-17T05:40:21.874Z,-3.40
2018-03-17T05:43:37.948Z,-3.50
2018-03-17T05:46:56.186Z,-3.50
2018-03-17T05:50:03.574Z,-3.40
2018-03-17T05:53:10.700Z,-3.40
2018-03-17T05:56:14.504Z,-3.40
2018-03-17T05:59:21.448Z,-3.30
2018-03-17T06:02:26.548Z,-3.20
2018-03-17T06:05:32.788Z,-3.20
2018-03-17T06:08:36.316Z,-3.20
2018-03-17T06:11:41.352Z,-3.20
2018-03-17T06:14:48.023Z,-3.20
2018-03-17T06:17:58.966Z,-3.10
2018-03-17T06:21:05.283Z,-3.10
2018-03-17T06:24:13.711Z,-3.10
2018-03-17T06:27:21.283Z,-3.00
2018-03-17T06:30:26.395Z,-3.00
2018-03-17T06:33:30.825Z,-3.10
2018-03-17T06:36:38.206Z,-3.10
2018-03-17T06:39:44.095Z,-3.10
2018-03-17T06:42:49.287Z,-3.00
2018-03-17T06:45:55.249Z,-3.00
2018-03-17T06:49:00.203Z,-2.90
2018-03-17T06:52:17.509Z,-2.90
2018-03-17T06:55:21.901Z,-2.80
2018-03-17T06:58:25.234Z,-2.80
2018-03-17T07:01:29.303Z,-2.80
2018-03-17T07:04:32.618Z,-2.80
2018-03-17T07:07:35.910Z,-2.70
2018-03-17T07:10:39.235Z,-2.60
2018-03-17T07:13:43.335Z,-2.50
2018-03-17T07:16:47.407Z,-2.50
2018-03-17T07:19:50.759Z,-2.50
2018-03-17T07:22:54.039Z,-2.50
2018-03-17T07:25:57.358Z,-2.50
2018-03-17T07:29:00.662Z,-2.50
2018-03-17T07:32:04.022Z,-2.50
2018-03-17T07:35:07.302Z,-2.40
2018-03-17T07:38:10.627Z,-2.30
2018-03-17T07:41:14.722Z,-2.30
2018-03-17T07:44:18.042Z,-2.30
2018-03-17T07:47:22.135Z,-2.10
2018-03-17T07:50:25.435Z,-2.10
2018-03-17T07:53:28.759Z,-2.00
2018-03-17T07:56:32.828Z,-2.10
2018-03-17T07:59:36.163Z,-2.20
2018-03-17T08:02:40.235Z,-2.20
2018-03-17T08:05:43.558Z,-2.20
2018-03-17T08:08:46.859Z,-2.10
2018-03-17T08:11:50.178Z,-2.10
2018-03-17T08:14:53.510Z,-2.10
2018-03-17T08:17:56.811Z,-2.20
2018-03-17T08:21:00.138Z,-2.20
2018-03-17T08:24:03.447Z,-2.20
2018-03-17T08:27:07.539Z,-2.20
2018-03-17T08:30:10.847Z,-2.20
2018-03-17T08:33:14.174Z,-2.40
2018-03-17T08:36:17.480Z,-2.50
2018-03-17T08:39:20.798Z,-2.60
2018-03-17T08:42:24.111Z,-2.60
2018-03-17T08:45:27.446Z,-2.50
2018-03-17T08:48:31.514Z,-2.30
2018-03-17T08:51:34.830Z,-2.30
2018-03-17T08:54:38.135Z,-2.20
2018-03-17T08:57:42.260Z,-2.10
2018-03-17T09:00:46.336Z,-2.00
2018-03-17T09:03:49.664Z,-2.00
2018-03-17T09:06:53.011Z,-1.90
2018-03-17T09:09:56.315Z,-1.90
2018-03-17T09:12:59.634Z,-1.80
2018-03-17T09:16:02.946Z,-1.90
2018-03-17T09:19:06.278Z,-1.80
2018-03-17T09:22:09.583Z,-1.60
2018-03-17T09:25:12.918Z,-1.70
2018-03-17T09:28:16.235Z,-1.50
2018-03-17T09:31:19.564Z,-1.40
2018-03-17T09:34:22.894Z,-1.50
2018-03-17T09:37:26.202Z,-1.60
2018-03-17T09:40:29.538Z,-1.70
2018-03-17T09:43:33.607Z,-1.90
2018-03-17T09:46:36.930Z,-1.90
2018-03-17T09:49:40.257Z,-1.90
2018-03-17T09:52:43.570Z,-1.80
2018-03-17T09:55:46.882Z,-1.80
2018-03-17T09:58:50.206Z,-1.80
2018-03-17T10:01:53.502Z,-1.70
2018-03-17T10:04:56.830Z,-1.60
2018-03-17T10:08:00.895Z,-1.60
2018-03-17T10:11:04.230Z,-1.60
2018-03-17T10:14:08.298Z,-1.60
2018-03-17T10:17:11.647Z,-1.60
2018-03-17T10:20:15.719Z,-1.20
2018-03-17T10:23:19.038Z,-1.20
2018-03-17T10:26:22.347Z,-1.00
2018-03-17T10:29:26.474Z,-1.10
2018-03-17T10:32:29.746Z,-1.10
2018-03-17T10:35:33.076Z,-0.90
2018-03-17T10:38:36.379Z,-0.80
2018-03-17T10:41:39.697Z,-0.60
2018-03-17T10:44:43.018Z,-0.60
2018-03-17T10:47:46.363Z,-0.80
2018-03-17T10:50:49.655Z,-0.90
2018-03-17T10:53:53.727Z,-1.00
2018-03-17T10:56:57.068Z,-1.00
2018-03-17T11:00:00.374Z,-1.00
2018-03-17T11:03:03.695Z,-1.00
2018-03-17T11:06:07.068Z,-0.80
2018-03-17T11:09:11.102Z,-0.30
2018-03-17T11:12:14.419Z,-0.30
2018-03-17T11:15:17.718Z,-0.30
2018-03-17T11:18:21.050Z,-0.60
2018-03-17T11:21:25.139Z,-0.90
2018-03-17T11:24:28.454Z,-0.90
2018-03-17T11:27:32.527Z,-1.00
2018-03-17T11:30:35.850Z,-1.00
2018-03-17T11:33:39.159Z,-1.00
2018-03-17T11:36:44.078Z,-1.00
2018-03-17T11:39:47.379Z,-1.00
2018-03-17T11:42:50.703Z,-1.00
2018-03-17T11:45:54.011Z,-0.80
2018-03-17T11:48:57.331Z,-0.90
2018-03-17T11:52:00.645Z,-1.10
2018-03-17T11:55:03.976Z,-1.10
2018-03-17T11:58:07.286Z,-1.10
2018-03-17T12:01:11.636Z,-1.20
2018-03-17T12:18:30.591Z,-0.90
2018-03-17T12:21:33.918Z,-0.90
2018-03-17T12:28:17.749Z,-0.70
2018-03-17T13:01:11.512Z,-0.90
2018-03-17T13:04:34.267Z,-1.00
2018-03-17T13:15:13.628Z,-0.80
2018-03-17T13:22:04.053Z,-0.70
2018-03-17T13:25:07.432Z,-0.80
2018-03-17T13:28:26.556Z,-0.80
2018-03-17T13:31:30.193Z,-0.90
2018-03-17T13:34:34.865Z,-1.10
2018-03-17T13:41:28.169Z,-1.00
2018-03-17T13:48:18.046Z,-1.00
2018-03-17T14:43:32.206Z,-1.20
2018-03-17T14:46:37.552Z,-1.10
2018-03-17T14:50:22.658Z,-1.10
2018-03-17T14:56:42.036Z,-1.20
2018-03-17T14:59:52.701Z,-1.20
2018-03-17T15:02:58.363Z,-1.10
2018-03-17T15:09:37.274Z,-1.50
2018-03-17T15:15:59.859Z,-1.60
2018-03-17T15:19:09.890Z,-1.60
2018-03-17T15:22:19.649Z,-1.60
2018-03-17T15:25:27.001Z,-1.60
2018-03-17T15:28:35.493Z,-1.60
2018-03-17T15:31:59.313Z,-1.40
2018-03-17T15:35:09.606Z,-1.50
2018-03-17T15:38:14.643Z,-1.20
2018-03-17T15:41:33.933Z,-1.20
2018-03-17T15:44:58.108Z,-1.10
2018-03-17T15:48:12.672Z,-1.30
2018-03-17T15:51:28.285Z,-1.40
2018-03-17T15:54:40.400Z,-1.40
2018-03-17T15:57:47.590Z,-1.50
2018-03-17T16:01:00.614Z,-1.50
2018-03-17T16:04:11.117Z,-1.70
2018-03-17T16:07:18.197Z,-1.70
2018-03-17T16:10:31.017Z,-1.70
2018-03-17T16:13:39.089Z,-1.50
2018-03-17T16:19:59.898Z,-1.50
2018-03-17T16:23:13.488Z,-1.60
2018-03-17T16:26:19.723Z,-1.60
2018-03-17T16:29:28.442Z,-1.70
2018-03-17T16:32:32.601Z,-1.80
2018-03-17T16:35:40.452Z,-1.90
2018-03-17T16:42:01.169Z,-1.90
2018-03-17T16:45:10.300Z,-2.00
2018-03-17T16:48:22.150Z,-2.00
2018-03-17T16:51:41.224Z,-2.00
2018-03-17T16:54:50.314Z,-2.20
2018-03-17T17:04:51.669Z,-2.20
2018-03-17T17:08:00.470Z,-2.10
2018-03-17T17:11:11.112Z,-2.10
2018-03-17T17:14:20.552Z,-2.10
2018-03-17T17:17:27.236Z,-2.00
2018-03-17T17:23:58.636Z,-2.10
2018-03-17T17:27:08.629Z,-2.10
2018-03-17T17:30:14.724Z,-2.10
2018-03-17T17:33:25.148Z,-2.10
2018-03-17T17:36:29.978Z,-2.10
2018-03-17T17:42:54.544Z,-2.10
2018-03-17T17:46:02.314Z,-2.10
2018-03-17T17:49:11.223Z,-2.10
2018-03-17T17:55:31.722Z,-2.10
2018-03-17T17:58:38.246Z,-2.20
2018-03-17T18:01:50.994Z,-2.20
2018-03-17T18:04:55.154Z,-2.10
2018-03-17T18:11:38.979Z,-2.10
2018-03-17T18:26:02.925Z,-2.20
2018-03-17T18:29:06.234Z,-2.20
2018-03-17T18:32:09.659Z,-2.20
2018-03-17T18:35:13.006Z,-2.20
2018-03-17T18:38:16.334Z,-2.30
2018-03-17T18:41:19.776Z,-2.30
2018-03-17T18:44:23.908Z,-2.30
2018-03-17T18:47:27.988Z,-2.30
2018-03-17T18:50:31.306Z,-2.30
2018-03-17T18:53:35.376Z,-2.30
2018-03-17T18:56:38.747Z,-2.30
2018-03-17T18:59:42.778Z,-2.20
2018-03-17T19:06:14.481Z,-2.20
2018-03-17T19:09:20.180Z,-2.20
2018-03-17T19:12:32.491Z,-2.20
2018-03-17T19:15:35.990Z,-2.20
2018-03-17T19:18:44.470Z,-2.20
2018-03-17T19:21:48.667Z,-2.30
2018-03-17T19:24:55.821Z,-2.30
2018-03-17T19:27:59.162Z,-2.30
2018-03-17T19:31:02.508Z,-2.40
2018-03-17T19:34:05.836Z,-2.40
2018-03-17T19:40:19.557Z,-2.30
2018-03-17T19:43:23.965Z,-2.30
2018-03-17T19:46:30.222Z,-2.20
2018-03-17T19:49:37.568Z,-2.20
2018-03-17T19:52:48.677Z,-2.20
2018-03-17T19:55:55.998Z,-2.20
2018-03-17T19:59:04.805Z,-2.20
2018-03-17T20:02:12.191Z,-2.20
2018-03-17T20:05:18.301Z,-2.20
2018-03-17T20:08:25.702Z,-2.20
2018-03-17T20:11:32.779Z,-2.20
2018-03-17T20:14:39.868Z,-2.20
2018-03-17T20:17:45.002Z,-2.20
2018-03-17T20:21:05.535Z,-2.10
2018-03-17T20:24:10.745Z,-2.20
2018-03-17T20:27:15.684Z,-2.10
2018-03-17T20:30:22.336Z,-2.10
2018-03-17T20:33:30.032Z,-2.20
2018-03-17T20:36:35.144Z,-2.20
2018-03-17T20:39:42.362Z,-2.20
2018-03-17T20:42:46.553Z,-2.30
2018-03-17T20:45:51.368Z,-2.30
2018-03-17T20:48:57.445Z,-2.20
2018-03-17T20:52:03.218Z,-2.20
2018-03-17T20:55:10.961Z,-2.20
2018-03-17T20:58:19.063Z,-2.20
2018-03-17T21:05:02.664Z,-2.10
2018-03-17T21:08:08.300Z,-2.10
2018-03-17T21:18:24.008Z,-2.10
2018-03-17T21:21:34.930Z,-2.10
2018-03-17T21:27:59.986Z,-2.10
2018-03-17T21:31:05.168Z,-2.10
2018-03-17T21:34:20.637Z,-2.10
2018-03-17T21:37:37.570Z,-2.10
2018-03-17T21:40:43.991Z,-2.10
2018-03-17T21:47:09.409Z,-2.20
2018-03-17T21:50:26.028Z,-2.10
2018-03-17T21:53:32.703Z,-2.10
2018-03-17T21:56:42.755Z,-2.00
2018-03-17T21:59:50.782Z,-2.00
2018-03-17T22:02:55.878Z,-2.10
2018-03-17T22:06:05.108Z,-2.00
2018-03-17T22:09:11.690Z,-2.00
2018-03-17T22:12:21.376Z,-2.10
2018-03-17T22:15:27.875Z,-2.10
2018-03-17T22:18:36.798Z,-2.00
2018-03-17T22:21:41.349Z,-2.10
2018-03-17T22:24:47.275Z,-2.10
2018-03-17T22:27:50.935Z,-2.10
2018-03-17T22:30:57.568Z,-2.10
2018-03-17T22:34:03.460Z,-2.10
2018-03-17T22:37:10.135Z,-2.10
2018-03-17T22:40:21.435Z,-2.10
2018-03-17T22:43:29.166Z,-2.10
2018-03-17T22:46:40.310Z,-2.10
2018-03-17T22:49:51.499Z,-2.10
2018-03-17T22:53:05.076Z,-2.10
2018-03-17T22:56:13.463Z,-2.10
2018-03-17T22:59:20.250Z,-2.10
2018-03-17T23:02:28.436Z,-2.00
2018-03-17T23:05:34.370Z,-2.10
2018-03-17T23:08:39.107Z,-2.10
2018-03-17T23:11:44.152Z,-2.20
2018-03-17T23:14:48.413Z,-2.10
2018-03-17T23:17:54.709Z,-2.10
2018-03-17T23:21:04.000Z,-2.10
2018-03-17T23:24:14.373Z,-2.10
2018-03-17T23:27:23.674Z,-2.10
2018-03-17T23:30:29.110Z,-2.20
2018-03-17T23:33:38.028Z,-2.10
2018-03-17T23:36:43.120Z,-2.20
2018-03-17T23:39:53.781Z,-2.20
2018-03-17T23:43:03.312Z,-2.10
2018-03-17T23:46:14.198Z,-2.10
2018-03-17T23:49:18.452Z,-2.10
2018-03-17T23:52:24.410Z,-2.10
2018-03-17T23:55:29.693Z,-2.10
2018-03-17T23:58:34.740Z,-2.10
